Terminal Aerodrome Forecast
Issued by NWS

Home | Current Version | Previous Version | Graphics & Text | Print | Product List | Glossary On
Versions: 1 2 3 4 5 6 7 8 9 10 11 12 13 14 15 16 17 18 19 20 21 22 23 24 25 26 27 28 29 30 31
000
FTUS43 KLOT 240057 AAA
TAFMDW
TAF AMD
KMDW 240057Z 2401/2424 07012G18KT P6SM VCTS SCT040CB BKN120
     FM240245 27015G25KT 2SM +TSRA BKN015 OVC040CB
     FM240400 VRB06KT 6SM -SHRA VCTS BKN040CB
     FM240500 18006KT P6SM SCT030 BKN250
     FM241000 18006KT P6SM VCTS BKN025CB
     FM241300 21012G19KT P6SM SCT040
     FM242200 24012G19KT P6SM VCTS BKN040CB=

USA.gov is the U.S. government's official web portal to all federal, state and local government web resources and services.